Time;durP1;ratioP1;P1;durP2;ratioP2;P2;SDS_P1;SDS_P2;PMS_P1;PMS_P2;Temp;Humidity;BMP_temperature;BMP_pressure;BME280_temperature;BME280_humidity;BME280_pressure;Samples;Min_cycle;Max_cycle;Signal;HPM_P1;HPM_P2
2021/10/25 00:01:29;;;;;;;10.02;5.57;;;10.00;99.90;;;;;;4152948;28;20108;-72
2021/10/25 00:03:29;;;;;;;7.88;5.25;;;9.90;99.90;;;;;;4155231;28;20033;-73
2021/10/25 00:05:30;;;;;;;7.53;4.75;;;9.80;99.90;;;;;;4151179;28;20033;-73
2021/10/25 00:07:31;;;;;;;8.75;5.03;;;9.80;99.90;;;;;;4152269;28;20088;-72
2021/10/25 00:09:32;;;;;;;10.88;5.28;;;9.80;99.90;;;;;;4154886;28;20053;-73
2021/10/25 00:11:33;;;;;;;11.43;4.60;;;9.70;99.90;;;;;;4152736;28;20045;-72
2021/10/25 00:13:33;;;;;;;7.55;5.15;;;9.70;99.90;;;;;;4151236;28;20509;-73
2021/10/25 00:15:34;;;;;;;9.85;5.30;;;9.70;99.90;;;;;;4152165;28;20041;-73
2021/10/25 00:17:35;;;;;;;8.77;5.05;;;9.60;99.90;;;;;;4152786;28;20037;-72
2021/10/25 00:19:36;;;;;;;10.30;5.35;;;9.60;99.90;;;;;;4151467;28;20030;-73
2021/10/25 00:21:37;;;;;;;8.68;5.03;;;9.50;99.90;;;;;;4152505;28;20461;-72
2021/10/25 00:23:38;;;;;;;7.07;4.75;;;9.50;99.90;;;;;;4150963;28;20034;-72
2021/10/25 00:25:40;;;;;;;8.32;5.30;;;9.50;99.90;;;;;;4156306;28;20095;-73
2021/10/25 00:27:41;;;;;;;7.03;4.50;;;9.50;99.90;;;;;;4155173;28;20124;-72
2021/10/25 00:29:42;;;;;;;8.57;4.90;;;9.40;99.90;;;;;;4155918;28;20076;-72
2021/10/25 00:31:42;;;;;;;7.13;5.10;;;9.40;99.90;;;;;;4155540;28;20761;-73
2021/10/25 00:33:43;;;;;;;10.32;5.55;;;9.30;99.90;;;;;;4157799;28;20036;-73
2021/10/25 00:35:44;;;;;;;8.52;4.70;;;9.30;99.90;;;;;;4156962;28;20034;-72
2021/10/25 00:37:44;;;;;;;9.43;5.43;;;9.30;99.90;;;;;;4157643;28;20056;-72
2021/10/25 00:39:45;;;;;;;10.90;4.70;;;9.30;99.90;;;;;;4155153;28;20029;-72
2021/10/25 00:41:46;;;;;;;7.95;4.78;;;9.20;99.90;;;;;;4155444;28;20029;-72
2021/10/25 00:43:47;;;;;;;8.27;4.88;;;9.20;99.90;;;;;;4159509;28;20040;-72
2021/10/25 00:45:47;;;;;;;9.43;5.40;;;9.20;99.90;;;;;;4157796;28;20029;-72
2021/10/25 00:47:48;;;;;;;8.98;4.75;;;9.20;99.90;;;;;;4157228;28;20020;-72
2021/10/25 00:49:48;;;;;;;7.85;4.95;;;9.20;99.90;;;;;;4156932;28;20033;-73
2021/10/25 00:51:50;;;;;;;8.65;4.70;;;9.10;99.90;;;;;;4156864;28;20034;-73
2021/10/25 00:53:51;;;;;;;8.32;5.30;;;9.10;99.90;;;;;;4157036;28;20034;-73
2021/10/25 00:55:52;;;;;;;11.80;5.10;;;9.10;99.90;;;;;;4156043;28;20037;-72
2021/10/25 00:57:53;;;;;;;7.43;5.20;;;9.10;99.90;;;;;;4156820;28;20473;-73
2021/10/25 00:59:53;;;;;;;9.98;5.55;;;9.00;99.90;;;;;;4154551;28;20036;-72
2021/10/25 01:01:54;;;;;;;6.22;4.88;;;9.00;99.90;;;;;;4158047;28;20029;-72
2021/10/25 01:03:55;;;;;;;7.25;4.60;;;9.00;99.90;;;;;;4155043;28;20148;-73
2021/10/25 01:05:56;;;;;;;9.40;5.30;;;8.90;99.90;;;;;;4155369;28;20045;-72
2021/10/25 01:08:00;;;;;;;9.85;5.30;;;8.90;99.90;;;;;;4156653;28;20029;-72
2021/10/25 01:10:03;;;;;;;8.57;4.90;;;8.90;99.90;;;;;;4138089;28;20425;-73
2021/10/25 01:12:04;;;;;;;10.55;5.38;;;8.90;99.90;;;;;;4148429;28;20539;-72
2021/10/25 01:14:06;;;;;;;9.52;5.15;;;8.90;99.90;;;;;;4138474;28;20045;-73
2021/10/25 01:16:08;;;;;;;8.57;5.00;;;8.80;99.90;;;;;;4154105;28;20104;-72
2021/10/25 01:18:09;;;;;;;7.97;4.85;;;8.80;99.90;;;;;;4154631;28;20041;-72
2021/10/25 01:20:10;;;;;;;8.95;5.30;;;8.90;99.90;;;;;;4155993;28;20030;-72
2021/10/25 01:22:11;;;;;;;7.57;4.93;;;8.90;99.90;;;;;;4156155;28;20041;-72
2021/10/25 01:24:12;;;;;;;8.88;5.28;;;8.80;99.90;;;;;;4156709;28;20156;-72
2021/10/25 01:26:14;;;;;;;9.23;4.68;;;8.80;99.90;;;;;;4154079;28;20682;-72
2021/10/25 01:28:14;;;;;;;8.25;5.30;;;8.80;99.90;;;;;;4154650;28;20037;-72
2021/10/25 01:30:16;;;;;;;8.10;5.07;;;8.90;99.90;;;;;;4154351;28;20041;-73
2021/10/25 01:32:17;;;;;;;7.40;4.70;;;8.90;99.90;;;;;;4155862;28;20121;-73
2021/10/25 01:34:18;;;;;;;10.13;5.80;;;8.90;99.90;;;;;;4153518;28;20552;-73
2021/10/25 01:36:19;;;;;;;8.15;4.63;;;8.80;99.90;;;;;;4157057;28;20060;-72
2021/10/25 01:38:20;;;;;;;10.18;5.40;;;8.80;99.90;;;;;;4155911;28;20481;-73
2021/10/25 01:40:21;;;;;;;7.78;4.85;;;8.80;99.90;;;;;;4152041;28;20037;-73
2021/10/25 01:42:22;;;;;;;9.55;5.03;;;8.80;99.90;;;;;;4156135;28;20480;-73
2021/10/25 01:44:23;;;;;;;11.63;5.47;;;8.70;99.90;;;;;;4156166;28;20065;-73
2021/10/25 01:46:24;;;;;;;8.02;5.05;;;8.60;99.90;;;;;;4154395;28;20034;-72
2021/10/25 01:48:25;;;;;;;10.48;5.05;;;8.70;99.90;;;;;;4154159;28;20025;-72
2021/10/25 01:50:26;;;;;;;6.50;4.30;;;8.60;99.90;;;;;;4155420;28;20737;-73
2021/10/25 01:52:26;;;;;;;11.93;5.38;;;8.60;99.90;;;;;;4156304;28;20656;-72
2021/10/25 01:54:27;;;;;;;7.38;4.57;;;8.70;99.90;;;;;;4156280;28;20030;-73
2021/10/25 01:56:29;;;;;;;9.88;5.25;;;8.60;99.90;;;;;;4176398;28;20493;-72
2021/10/25 01:58:29;;;;;;;10.15;5.00;;;8.60;99.90;;;;;;4155601;28;20033;-72
2021/10/25 02:00:30;;;;;;;8.32;5.20;;;8.60;99.90;;;;;;4158054;28;20029;-73
2021/10/25 02:02:31;;;;;;;8.70;4.55;;;8.70;99.90;;;;;;4154217;28;20025;-72
2021/10/25 02:04:31;;;;;;;7.57;4.90;;;8.70;99.90;;;;;;4153138;28;20509;-72
2021/10/25 02:06:33;;;;;;;7.28;4.85;;;8.70;99.90;;;;;;4155326;28;20075;-72
2021/10/25 02:08:34;;;;;;;9.57;5.43;;;8.60;99.90;;;;;;4154314;28;20453;-72
2021/10/25 02:10:34;;;;;;;6.53;4.28;;;8.70;99.90;;;;;;4153339;28;20064;-72
2021/10/25 02:12:35;;;;;;;9.55;5.07;;;8.70;99.90;;;;;;4155766;28;20030;-72
2021/10/25 02:14:36;;;;;;;7.03;3.97;;;8.70;99.90;;;;;;4155902;28;20037;-72
2021/10/25 02:16:36;;;;;;;12.15;5.38;;;8.70;99.90;;;;;;4154375;28;20573;-72
2021/10/25 02:18:37;;;;;;;8.18;4.68;;;8.70;99.90;;;;;;4153029;28;20497;-73
2021/10/25 02:20:39;;;;;;;8.77;5.07;;;8.70;99.90;;;;;;4153799;28;20045;-72
2021/10/25 02:22:40;;;;;;;7.60;4.15;;;8.70;99.90;;;;;;4175042;28;20043;-73
2021/10/25 02:24:43;;;;;;;11.25;4.95;;;8.70;99.90;;;;;;4156140;28;20533;-72
2021/10/25 02:26:43;;;;;;;8.57;4.90;;;8.70;99.90;;;;;;4152934;28;20029;-73
2021/10/25 02:28:44;;;;;;;7.30;4.85;;;8.70;99.90;;;;;;4150975;28;20037;-72
2021/10/25 02:30:45;;;;;;;7.55;4.32;;;8.70;99.90;;;;;;4153957;28;20044;-73
2021/10/25 02:32:46;;;;;;;8.90;4.57;;;8.80;99.90;;;;;;4155610;28;20040;-72
2021/10/25 02:34:47;;;;;;;6.40;4.25;;;8.80;99.90;;;;;;4153748;28;20025;-73
2021/10/25 02:36:48;;;;;;;7.53;4.60;;;8.80;99.90;;;;;;4136913;28;20918;-73
2021/10/25 02:38:49;;;;;;;8.15;4.57;;;8.90;99.90;;;;;;4151617;28;20025;-73
2021/10/25 02:40:49;;;;;;;6.90;4.57;;;8.90;99.90;;;;;;4154312;28;20083;-73
2021/10/25 02:42:50;;;;;;;7.13;4.93;;;8.80;99.90;;;;;;4155761;28;20022;-73
2021/10/25 02:44:51;;;;;;;7.78;4.72;;;8.80;99.90;;;;;;4157894;28;20032;-73
2021/10/25 02:46:53;;;;;;;8.30;5.07;;;8.80;99.90;;;;;;4153375;28;20032;-72
2021/10/25 02:48:53;;;;;;;6.63;4.50;;;8.80;99.90;;;;;;4155129;28;20030;-73
2021/10/25 02:50:55;;;;;;;7.40;4.57;;;8.80;99.90;;;;;;4152937;28;20447;-73
2021/10/25 02:52:55;;;;;;;8.38;4.40;;;8.80;99.90;;;;;;4155271;28;20022;-73
2021/10/25 02:54:56;;;;;;;7.35;4.78;;;8.80;99.90;;;;;;4155101;28;20141;-73
2021/10/25 02:56:57;;;;;;;9.98;5.05;;;8.80;99.90;;;;;;4152728;28;20492;-73
2021/10/25 02:58:58;;;;;;;7.22;4.85;;;8.70;99.90;;;;;;4155610;28;20033;-72
2021/10/25 03:00:59;;;;;;;9.40;4.60;;;8.70;99.90;;;;;;4154743;28;20060;-73
2021/10/25 03:03:00;;;;;;;7.72;4.40;;;8.70;99.90;;;;;;4154208;28;20029;-72
2021/10/25 03:05:03;;;;;;;7.40;4.38;;;8.70;99.90;;;;;;4155271;28;20030;-73
2021/10/25 03:07:03;;;;;;;7.30;4.32;;;8.70;99.90;;;;;;4152638;28;20041;-73
2021/10/25 03:09:05;;;;;;;7.75;4.28;;;8.70;99.90;;;;;;4154866;28;20037;-72
2021/10/25 03:11:07;;;;;;;6.03;3.95;;;8.70;99.90;;;;;;4152752;28;20045;-72
2021/10/25 03:13:11;;;;;;;7.25;4.22;;;8.70;99.90;;;;;;4153851;28;20125;-72
2021/10/25 03:15:12;;;;;;;6.75;4.40;;;8.70;99.90;;;;;;4155075;28;20041;-73
2021/10/25 03:17:12;;;;;;;7.07;4.10;;;8.70;99.90;;;;;;4152804;28;20040;-72
2021/10/25 03:19:13;;;;;;;6.43;4.00;;;8.70;99.90;;;;;;4154840;28;20037;-72
2021/10/25 03:21:13;;;;;;;10.23;4.80;;;8.80;99.90;;;;;;4154590;28;20040;-72
2021/10/25 03:23:14;;;;;;;6.78;4.63;;;8.70;99.90;;;;;;4152853;28;20072;-72
2021/10/25 03:25:16;;;;;;;6.85;4.38;;;8.70;99.90;;;;;;4152767;28;20049;-72
2021/10/25 03:27:17;;;;;;;8.20;4.50;;;8.70;99.90;;;;;;4155397;28;20033;-73
2021/10/25 03:29:17;;;;;;;5.82;3.70;;;8.60;99.90;;;;;;4150071;28;20454;-72
2021/10/25 03:31:20;;;;;;;6.60;4.20;;;8.70;99.90;;;;;;4153607;28;20029;-72
2021/10/25 03:33:20;;;;;;;9.13;4.57;;;8.60;99.90;;;;;;4148677;28;20018;-72
2021/10/25 03:35:21;;;;;;;9.13;4.60;;;8.60;99.90;;;;;;4154748;28;20080;-73
2021/10/25 03:37:22;;;;;;;8.10;4.72;;;8.60;99.90;;;;;;4155156;28;20037;-73
2021/10/25 03:39:25;;;;;;;8.52;4.80;;;8.60;99.90;;;;;;4152529;28;20021;-72
2021/10/25 03:41:47;;;;;;;7.85;4.55;;;8.60;99.90;;;;;;4154445;28;20054;-73
2021/10/25 03:43:53;;;;;;;9.93;4.78;;;8.60;99.90;;;;;;4153651;28;20022;-73
2021/10/25 03:46:08;;;;;;;9.20;4.85;;;8.50;99.90;;;;;;4153474;28;20025;-72
2021/10/25 03:48:27;;;;;;;7.60;4.45;;;8.50;99.90;;;;;;4151834;28;20537;-72
2021/10/25 03:50:31;;;;;;;8.95;4.05;;;8.50;99.90;;;;;;4151247;28;20067;-72
2021/10/25 03:52:43;;;;;;;8.65;4.55;;;8.50;99.90;;;;;;4155099;28;20036;-73
2021/10/25 03:54:52;;;;;;;7.10;4.40;;;8.50;99.90;;;;;;4151783;28;20038;-72
2021/10/25 03:59:31;;;;;;;10.63;4.38;;;8.50;99.90;;;;;;4154753;28;20035;-72
2021/10/25 04:26:28;;;;;;;9.68;4.10;;;8.70;99.90;;;;;;4156515;28;20030;-73
2021/10/25 04:28:29;;;;;;;7.85;4.53;;;8.70;99.90;;;;;;4155262;28;20079;-72
2021/10/25 04:30:32;;;;;;;6.72;4.15;;;8.70;99.90;;;;;;4154709;28;20034;-72
2021/10/25 04:32:33;;;;;;;11.02;4.07;;;8.70;99.90;;;;;;4138459;28;20038;-72
2021/10/25 04:34:37;;;;;;;7.00;4.15;;;8.70;99.90;;;;;;4158874;28;20049;-73
2021/10/25 04:36:37;;;;;;;8.98;4.70;;;8.70;99.90;;;;;;4158421;28;20045;-72
2021/10/25 04:38:39;;;;;;;8.23;4.47;;;8.70;99.90;;;;;;4157037;28;20045;-73
2021/10/25 04:40:39;;;;;;;6.88;4.22;;;8.70;99.90;;;;;;4155233;28;20089;-73
2021/10/25 04:42:40;;;;;;;7.35;4.30;;;8.70;99.90;;;;;;4157667;28;20684;-72
2021/10/25 04:44:40;;;;;;;10.05;4.97;;;8.60;99.90;;;;;;4156807;28;20037;-73
2021/10/25 04:46:41;;;;;;;7.88;4.70;;;8.60;99.90;;;;;;4153832;28;21367;-72
2021/10/25 04:48:42;;;;;;;9.77;5.25;;;8.60;99.90;;;;;;4148491;28;20116;-71
2021/10/25 04:50:43;;;;;;;7.88;5.07;;;8.60;99.90;;;;;;4151959;28;20046;-74
2021/10/25 04:52:43;;;;;;;7.28;5.15;;;8.60;99.90;;;;;;4154910;28;20514;-74
2021/10/25 04:54:44;;;;;;;9.40;5.75;;;8.60;99.90;;;;;;4152946;28;20457;-73
2021/10/25 04:56:45;;;;;;;10.32;6.45;;;8.50;99.90;;;;;;4153073;28;20049;-73
2021/10/25 04:58:45;;;;;;;12.88;7.03;;;8.50;99.90;;;;;;4152042;28;20029;-73
2021/10/25 05:00:46;;;;;;;13.82;7.80;;;8.50;99.90;;;;;;4154102;28;20045;-73
2021/10/25 05:02:46;;;;;;;10.82;7.55;;;8.40;99.90;;;;;;4154055;28;20068;-73
2021/10/25 05:04:47;;;;;;;11.98;7.80;;;8.40;99.90;;;;;;4154083;28;20049;-73
2021/10/25 05:06:48;;;;;;;12.57;8.50;;;8.40;99.90;;;;;;4154764;28;20389;-73
2021/10/25 05:08:49;;;;;;;17.33;9.70;;;8.30;99.90;;;;;;4154100;28;20038;-73
2021/10/25 05:10:49;;;;;;;14.70;9.70;;;8.40;99.90;;;;;;4151120;28;20042;-73
2021/10/25 05:12:50;;;;;;;13.73;9.40;;;8.30;99.90;;;;;;4153096;28;21333;-73
2021/10/25 05:14:51;;;;;;;14.05;8.63;;;8.30;99.90;;;;;;4151051;28;20067;-73
2021/10/25 05:16:52;;;;;;;14.80;9.40;;;8.30;99.90;;;;;;4151574;28;20782;-73
2021/10/25 05:18:52;;;;;;;15.57;9.65;;;8.20;99.90;;;;;;4150527;28;20049;-73
2021/10/25 05:20:53;;;;;;;15.43;10.55;;;8.30;99.90;;;;;;4151624;28;20128;-73
2021/10/25 05:22:54;;;;;;;12.90;8.65;;;8.20;99.90;;;;;;4144171;28;20037;-73
2021/10/25 05:24:56;;;;;;;17.33;9.43;;;8.20;99.90;;;;;;4151101;28;20048;-73
2021/10/25 05:26:57;;;;;;;15.60;9.93;;;8.10;99.90;;;;;;4153080;28;20717;-72
2021/10/25 05:28:58;;;;;;;15.95;9.25;;;8.20;99.90;;;;;;4153305;28;20115;-74
2021/10/25 05:30:58;;;;;;;17.40;9.52;;;8.20;99.90;;;;;;4153477;28;20100;-73
2021/10/25 05:32:59;;;;;;;13.63;8.65;;;8.10;99.90;;;;;;4155115;28;20034;-73
2021/10/25 05:35:00;;;;;;;13.77;8.80;;;8.10;99.90;;;;;;4154131;28;20602;-73
2021/10/25 05:37:01;;;;;;;14.30;9.23;;;8.20;99.90;;;;;;4151171;28;20724;-73
2021/10/25 05:39:02;;;;;;;14.73;8.55;;;8.10;99.90;;;;;;4152916;28;20037;-74
2021/10/25 05:41:03;;;;;;;14.18;7.97;;;8.10;99.90;;;;;;4151337;28;21203;-74
2021/10/25 05:43:04;;;;;;;13.10;7.85;;;8.10;99.90;;;;;;4150829;28;20065;-74
2021/10/25 05:45:05;;;;;;;12.18;7.60;;;8.20;99.90;;;;;;4152596;28;20543;-74
2021/10/25 05:47:06;;;;;;;9.82;6.88;;;8.20;99.90;;;;;;4149135;28;20049;-74
2021/10/25 05:49:07;;;;;;;15.25;6.85;;;8.20;99.90;;;;;;4150962;28;20090;-74
2021/10/25 05:51:08;;;;;;;11.95;7.03;;;8.20;99.90;;;;;;4148028;28;20042;-74
2021/10/25 05:53:09;;;;;;;9.05;6.05;;;8.20;99.90;;;;;;4148828;28;20026;-74
2021/10/25 05:55:10;;;;;;;9.18;5.72;;;8.30;99.90;;;;;;4149741;28;20504;-74
2021/10/25 05:57:13;;;;;;;9.98;5.90;;;8.30;99.90;;;;;;4147540;28;20041;-73
2021/10/25 05:59:14;;;;;;;9.05;5.85;;;8.30;99.90;;;;;;4147456;28;20029;-74
2021/10/25 06:01:17;;;;;;;8.32;5.38;;;8.30;99.90;;;;;;4147197;28;20113;-74
2021/10/25 06:03:22;;;;;;;12.32;6.05;;;8.30;99.90;;;;;;4149257;28;20046;-73
2021/10/25 06:05:25;;;;;;;7.72;5.05;;;8.30;99.90;;;;;;4147716;28;20891;-74
2021/10/25 06:07:26;;;;;;;9.77;5.22;;;8.30;99.90;;;;;;4148852;28;20068;-74
2021/10/25 06:09:28;;;;;;;9.40;4.78;;;8.30;99.90;;;;;;4148656;28;20030;-74
2021/10/25 06:11:30;;;;;;;6.93;4.15;;;8.30;99.90;;;;;;4146927;28;20030;-74
2021/10/25 06:13:37;;;;;;;8.60;4.70;;;8.30;99.90;;;;;;4147212;28;20079;-75
2021/10/25 06:15:41;;;;;;;9.52;5.03;;;8.40;99.90;;;;;;4149160;28;20045;-74
2021/10/25 06:17:54;;;;;;;10.55;5.95;;;8.40;99.90;;;;;;4147098;28;20039;-74
2021/10/25 06:19:54;;;;;;;10.30;6.90;;;8.30;99.90;;;;;;4147403;28;20075;-75
2021/10/25 06:21:55;;;;;;;10.73;6.28;;;8.30;99.90;;;;;;4130276;28;20136;-74
2021/10/25 06:23:58;;;;;;;11.13;5.60;;;8.30;99.90;;;;;;4146586;28;20045;-74
2021/10/25 06:25:58;;;;;;;;;;;8.20;99.90;;;;;;4146479;28;20839;-74
2021/10/25 06:27:59;;;;;;;9.30;4.80;;;8.20;99.90;;;;;;4147743;28;20282;-75
2021/10/25 06:30:00;;;;;;;8.93;5.10;;;8.20;99.90;;;;;;4148506;28;20059;-74
2021/10/25 06:32:01;;;;;;;6.90;4.28;;;8.20;99.90;;;;;;4149310;28;20470;-74
2021/10/25 06:34:09;;;;;;;9.80;5.35;;;8.10;99.90;;;;;;4148184;28;20048;-74
2021/10/25 06:38:14;;;;;;;7.30;4.30;;;8.10;99.90;;;;;;3427845;23;20400;-72
2021/10/25 06:40:18;;;;;;;7.20;4.30;;;8.10;99.90;;;;;;4144144;28;20030;-72
2021/10/25 06:42:19;;;;;;;6.10;4.05;;;8.10;99.90;;;;;;4147805;28;20080;-72
2021/10/25 06:44:20;;;;;;;7.93;4.40;;;8.20;99.90;;;;;;4150412;28;20040;-72
2021/10/25 06:46:21;;;;;;;8.07;4.60;;;8.10;99.90;;;;;;4146265;28;20033;-72
2021/10/25 06:48:23;;;;;;;8.77;4.20;;;8.20;99.90;;;;;;4146235;28;20040;-72
2021/10/25 06:50:25;;;;;;;6.97;4.20;;;8.10;99.90;;;;;;4141136;28;20099;-72
2021/10/25 06:52:26;;;;;;;;;;;8.10;99.90;;;;;;4147381;28;20408;-72
2021/10/25 06:54:27;;;;;;;6.03;3.47;;;8.10;99.90;;;;;;4149880;28;19913;-73
2021/10/25 06:56:27;;;;;;;5.80;3.85;;;8.10;99.90;;;;;;4147934;28;20041;-73
2021/10/25 06:58:28;;;;;;;7.35;4.53;;;8.10;99.90;;;;;;4148286;28;20037;-73
2021/10/25 07:00:29;;;;;;;10.30;4.32;;;8.00;99.90;;;;;;4128612;28;20435;-73
2021/10/25 07:02:31;;;;;;;10.73;5.30;;;8.00;99.90;;;;;;4146563;28;20076;-73
2021/10/25 07:04:31;;;;;;;7.82;4.47;;;8.00;99.90;;;;;;4147788;28;20109;-73
2021/10/25 07:06:33;;;;;;;7.55;4.68;;;8.00;99.90;;;;;;4149474;28;20487;-73
2021/10/25 07:08:34;;;;;;;8.02;4.32;;;8.00;99.90;;;;;;4146457;28;20045;-73
2021/10/25 07:10:36;;;;;;;7.93;4.13;;;8.00;99.90;;;;;;4147765;28;20468;-73
2021/10/25 07:12:36;;;;;;;7.00;4.63;;;8.00;99.90;;;;;;4149218;28;20086;-73
2021/10/25 07:14:39;;;;;;;8.85;4.43;;;8.00;99.90;;;;;;4147091;28;20037;-72
2021/10/25 07:16:43;;;;;;;7.25;4.35;;;8.10;99.90;;;;;;4145665;28;20040;-72
2021/10/25 08:11:48;;;;;;;5.97;3.45;;;13.10;99.90;;;;;;4142160;28;20033;-72
2021/10/25 08:13:49;;;;;;;5.60;3.67;;;13.10;99.90;;;;;;4145627;28;20158;-72
2021/10/25 08:15:51;;;;;;;6.75;3.95;;;12.80;99.90;;;;;;4147894;28;20440;-72
2021/10/25 08:17:58;;;;;;;12.52;4.07;;;12.60;99.90;;;;;;4147632;28;20053;-72
2021/10/25 08:19:59;;;;;;;5.70;4.13;;;12.40;99.90;;;;;;4148224;28;20048;-72
2021/10/25 08:22:11;;;;;;;6.90;4.32;;;12.30;99.90;;;;;;4147615;28;20112;-72
2021/10/25 08:24:12;;;;;;;10.38;4.70;;;12.30;99.90;;;;;;4144310;28;20054;-72
2021/10/25 08:26:14;;;;;;;9.25;4.57;;;12.10;99.90;;;;;;4144896;28;20041;-72
2021/10/25 08:28:16;;;;;;;12.68;4.80;;;11.80;99.90;;;;;;4143496;28;20141;-72
2021/10/25 08:30:19;;;;;;;10.50;4.85;;;11.90;99.90;;;;;;4146162;28;20041;-72
2021/10/25 08:32:40;;;;;;;7.25;4.07;;;11.70;99.90;;;;;;4149915;28;20033;-72
2021/10/25 08:35:00;;;;;;;9.05;5.45;;;11.60;99.90;;;;;;4145432;28;20545;-72
2021/10/25 08:41:31;;;;;;;7.43;4.32;;;11.30;99.90;;;;;;4144894;28;20037;-72
2021/10/25 08:43:34;;;;;;;9.38;4.57;;;11.20;99.90;;;;;;4150050;28;20038;-72
2021/10/25 08:45:35;;;;;;;7.88;4.50;;;11.20;99.90;;;;;;4146289;28;20045;-73
2021/10/25 08:47:43;;;;;;;9.43;4.97;;;11.10;99.90;;;;;;4150962;28;20468;-73
2021/10/25 08:49:44;;;;;;;8.75;4.72;;;11.10;99.90;;;;;;4140332;28;20103;-73
2021/10/25 08:51:44;;;;;;;12.82;5.07;;;11.10;99.90;;;;;;4148311;28;20037;-73
2021/10/25 08:53:47;;;;;;;7.68;4.40;;;11.10;99.90;;;;;;4152232;28;21244;-73
2021/10/25 08:55:50;;;;;;;7.88;4.40;;;11.10;99.90;;;;;;4152006;28;20113;-73
2021/10/25 08:57:51;;;;;;;7.03;4.43;;;11.10;99.90;;;;;;4149374;28;20389;-73
2021/10/25 09:00:08;;;;;;;8.82;4.15;;;11.10;99.90;;;;;;4149100;28;20824;-72
2021/10/25 09:02:09;;;;;;;7.28;3.78;;;11.10;99.90;;;;;;4149426;28;20108;-73
2021/10/25 09:04:12;;;;;;;8.45;4.03;;;11.10;99.90;;;;;;4151617;28;20198;-73
2021/10/25 09:06:14;;;;;;;8.27;4.30;;;11.10;99.90;;;;;;4149313;28;20049;-73
2021/10/25 09:08:16;;;;;;;7.60;4.13;;;11.10;99.90;;;;;;4150475;28;20046;-73
2021/10/25 09:10:27;;;;;;;7.72;4.40;;;11.20;99.90;;;;;;4148086;28;20049;-72
2021/10/25 09:12:31;;;;;;;8.00;4.35;;;11.10;99.90;;;;;;4151611;28;20424;-73
2021/10/25 09:14:35;;;;;;;8.45;4.22;;;11.20;99.90;;;;;;4149590;28;20034;-72
2021/10/25 09:16:45;;;;;;;8.10;3.90;;;11.20;99.90;;;;;;4150808;28;20042;-72
2021/10/25 09:18:47;;;;;;;8.68;3.92;;;11.20;99.90;;;;;;4149935;28;20052;-72
2021/10/25 09:20:52;;;;;;;6.40;4.10;;;11.20;99.90;;;;;;4149642;28;20053;-73
2021/10/25 09:23:06;;;;;;;4.60;3.00;;;11.20;99.90;;;;;;4150035;28;20138;-73
2021/10/25 09:25:07;;;;;;;6.80;3.25;;;11.20;99.90;;;;;;4150300;28;20050;-73
2021/10/25 09:27:09;;;;;;;10.93;4.32;;;11.20;99.90;;;;;;4149054;28;20052;-73
2021/10/25 09:29:10;;;;;;;9.30;3.93;;;11.20;99.90;;;;;;4149383;28;20033;-73
2021/10/25 09:31:18;;;;;;;6.25;3.78;;;11.20;99.90;;;;;;4149859;28;20049;-73
2021/10/25 09:33:21;;;;;;;9.48;3.97;;;11.20;99.90;;;;;;4149593;28;20861;-73
2021/10/25 09:35:29;;;;;;;;;;;11.20;99.90;;;;;;4150381;28;20052;-72
2021/10/25 09:37:38;;;;;;;7.18;3.88;;;11.20;99.90;;;;;;4149768;28;20003;-73
2021/10/25 09:39:48;;;;;;;8.10;3.45;;;11.20;99.90;;;;;;4152966;28;20037;-72
2021/10/25 09:50:58;;;;;;;9.10;4.07;;;11.30;99.90;;;;;;4143373;28;20493;-73
2021/10/25 09:52:59;;;;;;;6.50;3.55;;;11.30;99.90;;;;;;4144952;28;20037;-72
2021/10/25 09:55:06;;;;;;;4.82;3.17;;;11.40;99.90;;;;;;4144780;28;20057;-72
2021/10/25 09:59:30;;;;;;;6.25;3.50;;;11.50;99.90;;;;;;4146830;28;20478;-72
2021/10/25 10:01:32;;;;;;;7.28;3.92;;;11.50;99.90;;;;;;4144588;28;20567;-73
2021/10/25 10:03:33;;;;;;;9.15;4.10;;;11.60;99.90;;;;;;4149033;28;20073;-73
2021/10/25 10:05:36;;;;;;;7.45;4.45;;;11.60;99.90;;;;;;4143181;28;20041;-73
2021/10/25 10:07:37;;;;;;;8.73;4.10;;;11.60;99.90;;;;;;4145184;28;20557;-73
2021/10/25 10:09:39;;;;;;;6.32;4.07;;;11.60;99.90;;;;;;4144720;28;20240;-73
2021/10/25 10:11:40;;;;;;;9.43;4.32;;;11.60;99.90;;;;;;4142369;28;20099;-72
2021/10/25 10:13:43;;;;;;;8.02;4.38;;;11.60;99.90;;;;;;4143764;28;20041;-73
2021/10/25 10:15:45;;;;;;;7.60;4.55;;;11.60;99.90;;;;;;4138288;28;20524;-72
2021/10/25 10:17:51;;;;;;;14.32;4.85;;;11.60;99.90;;;;;;4142195;28;20034;-73
2021/10/25 10:19:53;;;;;;;8.40;4.43;;;11.70;99.90;;;;;;4145712;28;20357;-73
2021/10/25 10:21:58;;;;;;;7.82;4.20;;;11.70;99.90;;;;;;4144783;28;20401;-73
2021/10/25 10:24:04;;;;;;;6.95;4.15;;;11.70;99.90;;;;;;4146700;28;20045;-73
2021/10/25 10:26:13;;;;;;;8.13;4.15;;;11.80;99.90;;;;;;4146861;28;20045;-73
2021/10/25 10:28:15;;;;;;;8.70;4.55;;;11.80;99.90;;;;;;4145289;28;20095;-72
2021/10/25 10:30:16;;;;;;;6.82;3.42;;;11.80;99.90;;;;;;4141693;28;20077;-73
2021/10/25 10:32:17;;;;;;;7.93;3.75;;;11.90;99.90;;;;;;4142823;28;20896;-72
2021/10/25 10:34:18;;;;;;;5.85;3.53;;;11.90;99.90;;;;;;4148316;28;20045;-73
2021/10/25 10:36:34;;;;;;;6.65;4.03;;;12.00;99.90;;;;;;4144259;28;20048;-72
2021/10/25 10:38:46;;;;;;;13.73;4.28;;;12.00;99.90;;;;;;4144271;28;20046;-73
2021/10/25 10:40:51;;;;;;;5.22;3.20;;;12.00;99.90;;;;;;4141676;28;20038;-73
2021/10/25 10:42:52;;;;;;;8.70;3.55;;;12.10;99.90;;;;;;4144656;28;20412;-72
2021/10/25 10:45:00;;;;;;;7.20;3.75;;;12.20;99.90;;;;;;4147634;28;20037;-73
2021/10/25 10:47:08;;;;;;;6.53;3.78;;;12.20;99.90;;;;;;4147162;28;20037;-73
2021/10/25 10:49:23;;;;;;;8.60;4.07;;;12.20;99.90;;;;;;4144993;28;20175;-72
2021/10/25 10:51:29;;;;;;;6.35;3.92;;;12.20;99.90;;;;;;4141569;28;20227;-73
2021/10/25 10:53:34;;;;;;;6.50;3.60;;;12.30;99.90;;;;;;4137358;28;21843;-73
2021/10/25 10:55:39;;;;;;;6.72;3.65;;;12.30;99.90;;;;;;4148829;28;20169;-73
2021/10/25 10:58:09;;;;;;;8.65;3.72;;;12.30;99.90;;;;;;4150973;28;20041;-73
2021/10/25 11:00:06;;;;;;;8.75;4.00;;;12.30;99.90;;;;;;4149049;28;20068;-73
2021/10/25 11:02:17;;;;;;;7.95;4.10;;;12.40;99.90;;;;;;4149685;28;20033;-72
2021/10/25 11:04:30;;;;;;;9.75;3.72;;;12.40;99.90;;;;;;4145934;28;20034;-73
2021/10/25 11:06:35;;;;;;;6.78;3.83;;;12.50;99.90;;;;;;4147166;28;20041;-73
2021/10/25 11:08:41;;;;;;;7.55;3.97;;;12.50;99.90;;;;;;4147156;28;20041;-72
2021/10/25 11:10:45;;;;;;;6.50;3.65;;;12.60;99.90;;;;;;4146921;28;20508;-72
2021/10/25 11:12:46;;;;;;;10.30;4.43;;;12.60;99.90;;;;;;4149074;28;20041;-72
2021/10/25 11:14:48;;;;;;;9.63;4.35;;;12.60;99.90;;;;;;4148496;28;20698;-73
2021/10/25 11:18:57;;;;;;;7.13;3.58;;;12.70;99.90;;;;;;4148208;28;20120;-73
2021/10/25 11:21:13;;;;;;;5.35;3.60;;;12.70;99.90;;;;;;4147847;28;20591;-73
2021/10/25 11:23:14;;;;;;;7.10;3.75;;;12.70;99.90;;;;;;4146247;28;20040;-73
2021/10/25 11:25:15;;;;;;;6.43;3.88;;;12.80;99.90;;;;;;4143066;28;20048;-72
2021/10/25 11:27:23;;;;;;;8.02;3.88;;;12.80;99.90;;;;;;4144479;28;20462;-72
2021/10/25 11:29:26;;;;;;;7.70;3.97;;;12.80;99.90;;;;;;4144831;28;20096;-72
2021/10/25 11:31:28;;;;;;;6.45;3.60;;;12.80;99.90;;;;;;4140703;28;20348;-72
2021/10/25 11:33:31;;;;;;;6.85;3.70;;;12.80;99.90;;;;;;4142398;28;20095;-72
2021/10/25 11:35:31;;;;;;;6.60;3.70;;;12.90;99.90;;;;;;4144993;28;20049;-73
2021/10/25 11:37:33;;;;;;;5.28;3.22;;;12.90;99.90;;;;;;4144418;28;20613;-73
2021/10/25 11:40:19;;;;;;;6.60;3.40;;;12.90;99.90;;;;;;4146497;28;20053;-72
2021/10/25 11:42:14;;;;;;;7.00;3.30;;;13.00;99.90;;;;;;4144767;28;20346;-72
2021/10/25 11:44:15;;;;;;;8.07;3.72;;;13.00;99.90;;;;;;4148364;28;20661;-72
2021/10/25 11:46:19;;;;;;;4.90;3.20;;;13.10;99.90;;;;;;4147880;28;20068;-72
2021/10/25 11:48:31;;;;;;;5.95;3.22;;;13.10;99.90;;;;;;4133005;28;20084;-72
2021/10/25 11:50:32;;;;;;;5.55;3.17;;;13.20;99.90;;;;;;4134077;28;20042;-73
2021/10/25 11:52:56;;;;;;;6.80;3.10;;;13.20;99.90;;;;;;4146052;28;20608;-72
2021/10/25 11:54:57;;;;;;;6.60;3.60;;;13.30;99.90;;;;;;4144688;28;20139;-72
2021/10/25 11:56:57;;;;;;;6.88;3.35;;;13.30;99.90;;;;;;4147090;28;20033;-72
2021/10/25 11:58:58;;;;;;;5.20;3.65;;;13.30;99.90;;;;;;4151173;28;20045;-72
2021/10/25 12:01:02;;;;;;;5.82;3.40;;;13.40;99.90;;;;;;4150009;28;20072;-72
2021/10/25 12:03:11;;;;;;;5.50;2.70;;;13.40;99.90;;;;;;4146909;28;20894;-72
2021/10/25 12:05:18;;;;;;;5.50;3.05;;;13.40;99.90;;;;;;4146797;28;20112;-72
2021/10/25 12:07:19;;;;;;;6.15;3.45;;;13.50;99.90;;;;;;4146091;28;20164;-72
2021/10/25 12:09:21;;;;;;;6.30;3.45;;;13.50;99.90;;;;;;4149317;28;20042;-73
2021/10/25 12:16:16;;;;;;;5.32;3.17;;;13.70;99.90;;;;;;4278755;23;20515;-73
2021/10/25 12:18:19;;;;;;;7.18;3.60;;;13.70;99.90;;;;;;4151425;28;20128;-73
2021/10/25 12:20:26;;;;;;;5.82;3.00;;;13.70;99.90;;;;;;4149965;28;20045;-73
2021/10/25 12:22:27;;;;;;;6.25;3.30;;;13.80;99.90;;;;;;4152851;28;20048;-73
2021/10/25 12:24:39;;;;;;;8.68;3.47;;;13.80;99.90;;;;;;4153862;28;20045;-73
2021/10/25 12:26:43;;;;;;;6.68;3.38;;;13.80;99.90;;;;;;4152607;28;20053;-72
2021/10/25 12:28:43;;;;;;;6.10;2.95;;;13.80;99.90;;;;;;4156037;28;20046;-73
2021/10/25 12:30:50;;;;;;;5.82;2.88;;;13.90;99.90;;;;;;4155415;28;20076;-73